sensor_id;sensor_type;location;lat;lon;timestamp;temperature;humidity
22966;DHT22;11649;48.090;9.754;2023-07-13T00:00:47;17.40;99.90
22966;DHT22;11649;48.090;9.754;2023-07-13T00:03:14;17.30;99.90
22966;DHT22;11649;48.090;9.754;2023-07-13T00:05:41;17.30;99.90
22966;DHT22;11649;48.090;9.754;2023-07-13T00:08:08;17.50;99.90
22966;DHT22;11649;48.090;9.754;2023-07-13T00:10:39;17.20;99.90
22966;DHT22;11649;48.090;9.754;2023-07-13T00:13:07;17.90;99.90
22966;DHT22;11649;48.090;9.754;2023-07-13T00:15:34;17.30;99.90
22966;DHT22;11649;48.090;9.754;2023-07-13T00:18:02;17.60;99.90
22966;DHT22;11649;48.090;9.754;2023-07-13T00:20:29;17.40;99.90
22966;DHT22;11649;48.090;9.754;2023-07-13T00:22:55;17.30;99.90
22966;DHT22;11649;48.090;9.754;2023-07-13T00:25:25;17.30;99.90
22966;DHT22;11649;48.090;9.754;2023-07-13T00:27:54;17.30;99.90
22966;DHT22;11649;48.090;9.754;2023-07-13T00:30:22;17.20;99.90
22966;DHT22;11649;48.090;9.754;2023-07-13T00:32:49;17.10;99.90
22966;DHT22;11649;48.090;9.754;2023-07-13T00:35:27;17.20;99.90
22966;DHT22;11649;48.090;9.754;2023-07-13T00:37:56;17.10;99.90
22966;DHT22;11649;48.090;9.754;2023-07-13T00:40:23;17.10;99.90
22966;DHT22;11649;48.090;9.754;2023-07-13T00:42:52;17.20;99.90
22966;DHT22;11649;48.090;9.754;2023-07-13T00:47:45;17.00;99.90
22966;DHT22;11649;48.090;9.754;2023-07-13T00:50:15;17.30;99.90
22966;DHT22;11649;48.090;9.754;2023-07-13T00:52:46;16.90;99.90
22966;DHT22;11649;48.090;9.754;2023-07-13T00:55:15;17.00;99.90
22966;DHT22;11649;48.090;9.754;2023-07-13T00:57:43;17.00;99.90
22966;DHT22;11649;48.090;9.754;2023-07-13T01:00:11;17.10;99.90
22966;DHT22;11649;48.090;9.754;2023-07-13T01:02:45;17.00;99.90
22966;DHT22;11649;48.090;9.754;2023-07-13T01:05:13;17.00;99.90
22966;DHT22;11649;48.090;9.754;2023-07-13T01:07:42;16.90;99.90
22966;DHT22;11649;48.090;9.754;2023-07-13T01:10:12;16.90;99.90
22966;DHT22;11649;48.090;9.754;2023-07-13T01:12:39;17.00;99.90
22966;DHT22;11649;48.090;9.754;2023-07-13T01:15:33;17.10;99.90
22966;DHT22;11649;48.090;9.754;2023-07-13T01:18:03;17.30;99.90
22966;DHT22;11649;48.090;9.754;2023-07-13T01:20:30;17.10;99.90
22966;DHT22;11649;48.090;9.754;2023-07-13T01:22:58;17.00;99.90
22966;DHT22;11649;48.090;9.754;2023-07-13T01:25:26;17.00;99.90
22966;DHT22;11649;48.090;9.754;2023-07-13T01:27:53;17.00;99.90
22966;DHT22;11649;48.090;9.754;2023-07-13T01:30:20;17.10;99.90
22966;DHT22;11649;48.090;9.754;2023-07-13T01:32:47;16.80;99.90
22966;DHT22;11649;48.090;9.754;2023-07-13T01:35:13;17.20;99.90
22966;DHT22;11649;48.090;9.754;2023-07-13T01:37:40;16.90;99.90
22966;DHT22;11649;48.090;9.754;2023-07-13T01:40:07;17.00;99.90
22966;DHT22;11649;48.090;9.754;2023-07-13T01:42:36;17.00;99.90
22966;DHT22;11649;48.090;9.754;2023-07-13T01:45:03;17.00;99.90
22966;DHT22;11649;48.090;9.754;2023-07-13T01:47:30;17.00;99.90
22966;DHT22;11649;48.090;9.754;2023-07-13T01:49:58;16.90;99.90
22966;DHT22;11649;48.090;9.754;2023-07-13T01:52:24;16.80;99.90
22966;DHT22;11649;48.090;9.754;2023-07-13T01:54:51;17.20;99.90
22966;DHT22;11649;48.090;9.754;2023-07-13T01:57:19;17.20;99.90
22966;DHT22;11649;48.090;9.754;2023-07-13T01:59:46;17.30;99.90
22966;DHT22;11649;48.090;9.754;2023-07-13T02:02:13;17.10;99.90
22966;DHT22;11649;48.090;9.754;2023-07-13T02:04:40;17.10;99.90
22966;DHT22;11649;48.090;9.754;2023-07-13T02:07:08;16.80;99.90
22966;DHT22;11649;48.090;9.754;2023-07-13T02:09:35;17.10;99.90
22966;DHT22;11649;48.090;9.754;2023-07-13T02:12:03;16.80;99.90
22966;DHT22;11649;48.090;9.754;2023-07-13T02:14:29;17.00;99.90
22966;DHT22;11649;48.090;9.754;2023-07-13T02:16:56;17.00;99.90
22966;DHT22;11649;48.090;9.754;2023-07-13T02:19:23;17.00;99.90
22966;DHT22;11649;48.090;9.754;2023-07-13T02:21:50;17.10;99.90
22966;DHT22;11649;48.090;9.754;2023-07-13T02:24:17;16.80;99.90
22966;DHT22;11649;48.090;9.754;2023-07-13T02:26:46;16.70;99.90
22966;DHT22;11649;48.090;9.754;2023-07-13T02:29:12;16.60;99.90
22966;DHT22;11649;48.090;9.754;2023-07-13T02:31:39;16.60;99.90
22966;DHT22;11649;48.090;9.754;2023-07-13T02:34:06;16.70;99.90
22966;DHT22;11649;48.090;9.754;2023-07-13T02:36:33;16.40;99.90
22966;DHT22;11649;48.090;9.754;2023-07-13T02:39:02;16.80;99.90
22966;DHT22;11649;48.090;9.754;2023-07-13T02:41:29;16.50;99.90
22966;DHT22;11649;48.090;9.754;2023-07-13T02:43:58;16.40;99.90
22966;DHT22;11649;48.090;9.754;2023-07-13T02:46:33;16.40;99.90
22966;DHT22;11649;48.090;9.754;2023-07-13T02:49:00;16.30;99.90
22966;DHT22;11649;48.090;9.754;2023-07-13T02:51:27;16.70;99.90
22966;DHT22;11649;48.090;9.754;2023-07-13T02:53:55;17.10;99.90
22966;DHT22;11649;48.090;9.754;2023-07-13T02:56:24;17.20;99.90
22966;DHT22;11649;48.090;9.754;2023-07-13T02:58:51;16.70;99.90
22966;DHT22;11649;48.090;9.754;2023-07-13T03:01:18;16.80;99.90
22966;DHT22;11649;48.090;9.754;2023-07-13T03:03:46;16.80;99.90
22966;DHT22;11649;48.090;9.754;2023-07-13T03:06:13;16.80;99.90
22966;DHT22;11649;48.090;9.754;2023-07-13T03:08:40;16.80;99.90
22966;DHT22;11649;48.090;9.754;2023-07-13T03:11:10;17.30;99.90
22966;DHT22;11649;48.090;9.754;2023-07-13T03:13:38;16.70;99.90
22966;DHT22;11649;48.090;9.754;2023-07-13T03:16:05;16.80;99.90
22966;DHT22;11649;48.090;9.754;2023-07-13T03:18:32;16.70;99.90
22966;DHT22;11649;48.090;9.754;2023-07-13T03:20:59;16.80;99.90
22966;DHT22;11649;48.090;9.754;2023-07-13T03:23:26;17.00;99.90
22966;DHT22;11649;48.090;9.754;2023-07-13T03:26:03;16.90;99.90
22966;DHT22;11649;48.090;9.754;2023-07-13T03:28:31;16.90;99.90
22966;DHT22;11649;48.090;9.754;2023-07-13T03:31:06;16.90;99.90
22966;DHT22;11649;48.090;9.754;2023-07-13T03:33:33;16.80;99.90
22966;DHT22;11649;48.090;9.754;2023-07-13T03:36:01;17.00;99.90
22966;DHT22;11649;48.090;9.754;2023-07-13T03:38:28;16.80;99.90
22966;DHT22;11649;48.090;9.754;2023-07-13T03:40:55;16.70;99.90
22966;DHT22;11649;48.090;9.754;2023-07-13T03:43:21;16.80;99.90
22966;DHT22;11649;48.090;9.754;2023-07-13T03:45:48;16.80;99.90
22966;DHT22;11649;48.090;9.754;2023-07-13T03:48:15;16.80;99.90
22966;DHT22;11649;48.090;9.754;2023-07-13T03:50:42;16.60;99.90
22966;DHT22;11649;48.090;9.754;2023-07-13T03:53:09;16.70;99.90
22966;DHT22;11649;48.090;9.754;2023-07-13T03:55:36;16.90;99.90
22966;DHT22;11649;48.090;9.754;2023-07-13T03:58:31;16.80;99.90
22966;DHT22;11649;48.090;9.754;2023-07-13T04:00:59;16.80;99.90
22966;DHT22;11649;48.090;9.754;2023-07-13T04:03:27;16.70;99.90
22966;DHT22;11649;48.090;9.754;2023-07-13T04:05:55;16.80;99.90
22966;DHT22;11649;48.090;9.754;2023-07-13T04:08:27;16.80;99.90
22966;DHT22;11649;48.090;9.754;2023-07-13T04:10:55;16.80;99.90
22966;DHT22;11649;48.090;9.754;2023-07-13T04:13:22;16.80;99.90
22966;DHT22;11649;48.090;9.754;2023-07-13T04:15:50;16.60;99.90
22966;DHT22;11649;48.090;9.754;2023-07-13T04:18:17;16.60;99.90
22966;DHT22;11649;48.090;9.754;2023-07-13T04:20:50;16.50;99.90
22966;DHT22;11649;48.090;9.754;2023-07-13T04:23:17;16.60;99.90
22966;DHT22;11649;48.090;9.754;2023-07-13T04:25:48;16.50;99.90
22966;DHT22;11649;48.090;9.754;2023-07-13T04:28:21;16.70;99.90
22966;DHT22;11649;48.090;9.754;2023-07-13T04:30:48;16.50;99.90
22966;DHT22;11649;48.090;9.754;2023-07-13T04:33:15;16.60;99.90
22966;DHT22;11649;48.090;9.754;2023-07-13T04:35:50;17.00;99.90
22966;DHT22;11649;48.090;9.754;2023-07-13T04:38:22;16.70;99.90
22966;DHT22;11649;48.090;9.754;2023-07-13T04:40:49;16.70;99.90
22966;DHT22;11649;48.090;9.754;2023-07-13T04:43:15;16.90;99.90
22966;DHT22;11649;48.090;9.754;2023-07-13T04:45:42;17.30;99.90
22966;DHT22;11649;48.090;9.754;2023-07-13T04:48:09;16.90;99.90
22966;DHT22;11649;48.090;9.754;2023-07-13T04:50:37;16.90;99.90
22966;DHT22;11649;48.090;9.754;2023-07-13T04:53:04;16.80;99.90
22966;DHT22;11649;48.090;9.754;2023-07-13T04:55:31;16.70;99.90
22966;DHT22;11649;48.090;9.754;2023-07-13T04:57:58;16.70;99.90
22966;DHT22;11649;48.090;9.754;2023-07-13T05:00:29;16.70;99.90
22966;DHT22;11649;48.090;9.754;2023-07-13T05:02:57;16.80;99.90
22966;DHT22;11649;48.090;9.754;2023-07-13T05:05:25;16.70;99.90
22966;DHT22;11649;48.090;9.754;2023-07-13T05:07:53;16.60;99.90
22966;DHT22;11649;48.090;9.754;2023-07-13T05:10:20;16.80;99.90
22966;DHT22;11649;48.090;9.754;2023-07-13T05:12:47;16.60;99.90
22966;DHT22;11649;48.090;9.754;2023-07-13T05:15:14;16.40;99.90
22966;DHT22;11649;48.090;9.754;2023-07-13T05:17:41;16.50;99.90
22966;DHT22;11649;48.090;9.754;2023-07-13T05:20:09;16.50;99.90
22966;DHT22;11649;48.090;9.754;2023-07-13T05:22:36;16.70;99.90
22966;DHT22;11649;48.090;9.754;2023-07-13T05:25:07;16.60;99.90
22966;DHT22;11649;48.090;9.754;2023-07-13T05:27:35;16.70;99.90
22966;DHT22;11649;48.090;9.754;2023-07-13T05:30:03;16.60;99.90
22966;DHT22;11649;48.090;9.754;2023-07-13T05:32:30;16.60;99.90
22966;DHT22;11649;48.090;9.754;2023-07-13T05:34:56;16.60;99.90
22966;DHT22;11649;48.090;9.754;2023-07-13T05:37:23;16.90;99.90
22966;DHT22;11649;48.090;9.754;2023-07-13T05:39:50;17.00;99.90
22966;DHT22;11649;48.090;9.754;2023-07-13T05:42:17;16.90;99.90
22966;DHT22;11649;48.090;9.754;2023-07-13T05:44:43;17.00;99.90
22966;DHT22;11649;48.090;9.754;2023-07-13T05:47:10;17.00;99.90
22966;DHT22;11649;48.090;9.754;2023-07-13T05:49:37;17.10;99.90
22966;DHT22;11649;48.090;9.754;2023-07-13T05:52:05;16.90;99.90
22966;DHT22;11649;48.090;9.754;2023-07-13T05:54:31;16.90;99.90
22966;DHT22;11649;48.090;9.754;2023-07-13T05:56:58;16.90;99.90
22966;DHT22;11649;48.090;9.754;2023-07-13T05:59:25;17.00;99.90
22966;DHT22;11649;48.090;9.754;2023-07-13T06:01:52;16.80;99.90
22966;DHT22;11649;48.090;9.754;2023-07-13T06:04:19;17.10;99.90
22966;DHT22;11649;48.090;9.754;2023-07-13T06:06:47;17.00;99.90
22966;DHT22;11649;48.090;9.754;2023-07-13T06:09:14;17.00;99.90
22966;DHT22;11649;48.090;9.754;2023-07-13T06:11:41;17.00;99.90
22966;DHT22;11649;48.090;9.754;2023-07-13T06:14:07;16.50;99.90
22966;DHT22;11649;48.090;9.754;2023-07-13T06:16:34;16.50;99.90
22966;DHT22;11649;48.090;9.754;2023-07-13T06:19:02;16.60;99.90
22966;DHT22;11649;48.090;9.754;2023-07-13T06:21:29;16.60;99.90
22966;DHT22;11649;48.090;9.754;2023-07-13T06:23:55;16.60;99.90
22966;DHT22;11649;48.090;9.754;2023-07-13T06:26:23;16.60;99.90
22966;DHT22;11649;48.090;9.754;2023-07-13T06:28:50;16.90;99.90
22966;DHT22;11649;48.090;9.754;2023-07-13T06:31:17;16.90;99.90
22966;DHT22;11649;48.090;9.754;2023-07-13T06:33:44;16.80;99.90
22966;DHT22;11649;48.090;9.754;2023-07-13T06:36:11;16.80;99.90
22966;DHT22;11649;48.090;9.754;2023-07-13T06:38:38;16.80;99.90
22966;DHT22;11649;48.090;9.754;2023-07-13T06:41:06;16.70;99.90
22966;DHT22;11649;48.090;9.754;2023-07-13T06:43:34;16.90;99.90
22966;DHT22;11649;48.090;9.754;2023-07-13T06:46:01;17.00;99.90
22966;DHT22;11649;48.090;9.754;2023-07-13T06:48:28;16.80;99.90
22966;DHT22;11649;48.090;9.754;2023-07-13T06:50:55;16.60;99.90
22966;DHT22;11649;48.090;9.754;2023-07-13T06:53:23;16.60;99.90
22966;DHT22;11649;48.090;9.754;2023-07-13T06:55:50;16.80;99.90
22966;DHT22;11649;48.090;9.754;2023-07-13T06:58:18;16.80;99.90
22966;DHT22;11649;48.090;9.754;2023-07-13T07:00:46;17.00;99.90
22966;DHT22;11649;48.090;9.754;2023-07-13T07:03:13;17.00;99.90
22966;DHT22;11649;48.090;9.754;2023-07-13T07:05:40;17.00;99.90
22966;DHT22;11649;48.090;9.754;2023-07-13T07:08:07;17.30;99.90
22966;DHT22;11649;48.090;9.754;2023-07-13T07:10:34;17.60;99.90
22966;DHT22;11649;48.090;9.754;2023-07-13T07:13:01;17.20;99.90
22966;DHT22;11649;48.090;9.754;2023-07-13T07:15:28;17.20;99.90
22966;DHT22;11649;48.090;9.754;2023-07-13T07:17:55;17.20;99.90
22966;DHT22;11649;48.090;9.754;2023-07-13T07:20:22;17.20;99.90
22966;DHT22;11649;48.090;9.754;2023-07-13T07:22:49;17.00;99.90
22966;DHT22;11649;48.090;9.754;2023-07-13T07:25:16;16.90;99.90
22966;DHT22;11649;48.090;9.754;2023-07-13T07:27:43;17.10;99.90
22966;DHT22;11649;48.090;9.754;2023-07-13T07:30:13;17.40;99.90
22966;DHT22;11649;48.090;9.754;2023-07-13T07:32:43;17.10;99.90
22966;DHT22;11649;48.090;9.754;2023-07-13T07:35:12;17.20;99.90
22966;DHT22;11649;48.090;9.754;2023-07-13T07:37:39;17.20;99.90
22966;DHT22;11649;48.090;9.754;2023-07-13T07:40:09;17.30;99.90
22966;DHT22;11649;48.090;9.754;2023-07-13T07:42:38;17.20;99.90
22966;DHT22;11649;48.090;9.754;2023-07-13T07:45:06;16.90;99.90
22966;DHT22;11649;48.090;9.754;2023-07-13T07:47:33;17.20;99.90
22966;DHT22;11649;48.090;9.754;2023-07-13T07:49:59;17.30;99.90
22966;DHT22;11649;48.090;9.754;2023-07-13T07:52:26;17.40;99.90
22966;DHT22;11649;48.090;9.754;2023-07-13T07:54:53;17.50;99.90
22966;DHT22;11649;48.090;9.754;2023-07-13T07:57:23;17.70;99.90
22966;DHT22;11649;48.090;9.754;2023-07-13T07:59:53;17.80;99.90
22966;DHT22;11649;48.090;9.754;2023-07-13T08:02:23;17.90;99.90
22966;DHT22;11649;48.090;9.754;2023-07-13T08:04:53;18.10;99.90
22966;DHT22;11649;48.090;9.754;2023-07-13T08:07:23;18.00;99.90
22966;DHT22;11649;48.090;9.754;2023-07-13T08:09:52;18.30;99.90
22966;DHT22;11649;48.090;9.754;2023-07-13T08:12:19;18.50;99.90
22966;DHT22;11649;48.090;9.754;2023-07-13T08:15:11;18.30;99.90
22966;DHT22;11649;48.090;9.754;2023-07-13T08:17:38;18.50;99.90
22966;DHT22;11649;48.090;9.754;2023-07-13T08:20:05;18.60;99.90
22966;DHT22;11649;48.090;9.754;2023-07-13T08:22:32;18.50;99.90
22966;DHT22;11649;48.090;9.754;2023-07-13T08:25:00;18.60;99.90
22966;DHT22;11649;48.090;9.754;2023-07-13T08:27:28;18.50;99.90
22966;DHT22;11649;48.090;9.754;2023-07-13T08:29:55;18.40;99.90
22966;DHT22;11649;48.090;9.754;2023-07-13T08:32:23;18.20;99.90
22966;DHT22;11649;48.090;9.754;2023-07-13T08:34:50;18.20;99.90
22966;DHT22;11649;48.090;9.754;2023-07-13T08:37:18;18.30;99.90
22966;DHT22;11649;48.090;9.754;2023-07-13T08:39:45;18.30;99.90
22966;DHT22;11649;48.090;9.754;2023-07-13T08:47:43;18.50;99.90
22966;DHT22;11649;48.090;9.754;2023-07-13T08:50:14;18.70;99.90
22966;DHT22;11649;48.090;9.754;2023-07-13T08:52:44;18.80;99.90
22966;DHT22;11649;48.090;9.754;2023-07-13T08:55:22;18.90;99.90
22966;DHT22;11649;48.090;9.754;2023-07-13T08:58:14;19.20;99.90
22966;DHT22;11649;48.090;9.754;2023-07-13T09:01:05;19.40;99.90
22966;DHT22;11649;48.090;9.754;2023-07-13T09:03:42;19.60;99.90
22966;DHT22;11649;48.090;9.754;2023-07-13T09:06:14;19.60;99.90
22966;DHT22;11649;48.090;9.754;2023-07-13T09:08:58;19.80;99.90
22966;DHT22;11649;48.090;9.754;2023-07-13T09:16:51;19.80;99.90
22966;DHT22;11649;48.090;9.754;2023-07-13T09:19:30;20.10;99.90
22966;DHT22;11649;48.090;9.754;2023-07-13T09:21:59;20.10;99.90
22966;DHT22;11649;48.090;9.754;2023-07-13T09:24:41;20.20;99.90
22966;DHT22;11649;48.090;9.754;2023-07-13T09:32:47;20.40;98.70
22966;DHT22;11649;48.090;9.754;2023-07-13T09:35:17;20.40;98.50
22966;DHT22;11649;48.090;9.754;2023-07-13T09:37:45;20.30;99.90
22966;DHT22;11649;48.090;9.754;2023-07-13T09:40:28;20.20;99.90
22966;DHT22;11649;48.090;9.754;2023-07-13T09:42:58;19.90;97.30
22966;DHT22;11649;48.090;9.754;2023-07-13T09:45:30;20.00;99.90
22966;DHT22;11649;48.090;9.754;2023-07-13T09:48:11;20.10;93.70
22966;DHT22;11649;48.090;9.754;2023-07-13T09:50:41;20.10;83.60
22966;DHT22;11649;48.090;9.754;2023-07-13T09:53:17;20.20;85.20
22966;DHT22;11649;48.090;9.754;2023-07-13T09:55:47;20.30;79.50
22966;DHT22;11649;48.090;9.754;2023-07-13T09:58:22;20.40;75.30
22966;DHT22;11649;48.090;9.754;2023-07-13T10:00:57;20.40;77.90
22966;DHT22;11649;48.090;9.754;2023-07-13T10:03:27;20.50;77.50
22966;DHT22;11649;48.090;9.754;2023-07-13T10:06:03;20.50;72.40
22966;DHT22;11649;48.090;9.754;2023-07-13T10:08:31;20.60;66.10
22966;DHT22;11649;48.090;9.754;2023-07-13T10:11:10;20.20;77.50
22966;DHT22;11649;48.090;9.754;2023-07-13T10:13:42;20.10;73.60
22966;DHT22;11649;48.090;9.754;2023-07-13T10:16:10;20.10;95.90
22966;DHT22;11649;48.090;9.754;2023-07-13T10:19:06;20.10;81.70
22966;DHT22;11649;48.090;9.754;2023-07-13T10:21:44;20.10;75.70
22966;DHT22;11649;48.090;9.754;2023-07-13T10:24:21;20.10;82.20
22966;DHT22;11649;48.090;9.754;2023-07-13T10:27:02;20.10;80.20
22966;DHT22;11649;48.090;9.754;2023-07-13T10:29:36;20.20;90.70
22966;DHT22;11649;48.090;9.754;2023-07-13T10:32:09;20.50;84.60
22966;DHT22;11649;48.090;9.754;2023-07-13T10:34:39;20.80;86.80
22966;DHT22;11649;48.090;9.754;2023-07-13T10:37:07;21.10;77.80
22966;DHT22;11649;48.090;9.754;2023-07-13T10:39:41;21.20;78.30
22966;DHT22;11649;48.090;9.754;2023-07-13T10:42:13;21.30;81.40
22966;DHT22;11649;48.090;9.754;2023-07-13T10:44:42;21.30;89.50
22966;DHT22;11649;48.090;9.754;2023-07-13T10:47:15;21.40;72.50
22966;DHT22;11649;48.090;9.754;2023-07-13T10:49:43;21.10;87.70
22966;DHT22;11649;48.090;9.754;2023-07-13T10:58:13;21.50;70.80
22966;DHT22;11649;48.090;9.754;2023-07-13T11:00:51;21.40;70.60
22966;DHT22;11649;48.090;9.754;2023-07-13T11:03:21;21.30;69.40
22966;DHT22;11649;48.090;9.754;2023-07-13T11:05:50;21.20;64.20
22966;DHT22;11649;48.090;9.754;2023-07-13T11:08:20;20.90;73.50
22966;DHT22;11649;48.090;9.754;2023-07-13T11:10:54;21.10;68.20
22966;DHT22;11649;48.090;9.754;2023-07-13T11:13:39;21.10;70.40
22966;DHT22;11649;48.090;9.754;2023-07-13T11:18:54;21.30;74.50
22966;DHT22;11649;48.090;9.754;2023-07-13T11:21:35;21.20;85.90
22966;DHT22;11649;48.090;9.754;2023-07-13T11:24:21;21.40;83.10
22966;DHT22;11649;48.090;9.754;2023-07-13T11:29:24;21.80;72.00
22966;DHT22;11649;48.090;9.754;2023-07-13T11:31:57;21.90;76.30
22966;DHT22;11649;48.090;9.754;2023-07-13T11:34:28;21.90;77.60
22966;DHT22;11649;48.090;9.754;2023-07-13T11:36:57;22.00;77.80
22966;DHT22;11649;48.090;9.754;2023-07-13T11:39:32;22.20;77.20
22966;DHT22;11649;48.090;9.754;2023-07-13T11:42:02;22.10;75.00
22966;DHT22;11649;48.090;9.754;2023-07-13T11:44:32;22.00;78.10
22966;DHT22;11649;48.090;9.754;2023-07-13T11:47:07;22.00;87.60
22966;DHT22;11649;48.090;9.754;2023-07-13T11:49:49;22.20;81.60
22966;DHT22;11649;48.090;9.754;2023-07-13T11:52:21;22.40;75.70
22966;DHT22;11649;48.090;9.754;2023-07-13T11:54:54;22.70;68.50
22966;DHT22;11649;48.090;9.754;2023-07-13T11:57:45;22.60;72.10
22966;DHT22;11649;48.090;9.754;2023-07-13T12:00:15;22.80;69.50
22966;DHT22;11649;48.090;9.754;2023-07-13T12:02:45;22.70;67.70
22966;DHT22;11649;48.090;9.754;2023-07-13T12:05:14;22.60;64.70
22966;DHT22;11649;48.090;9.754;2023-07-13T12:07:41;22.60;65.30
22966;DHT22;11649;48.090;9.754;2023-07-13T12:12:37;22.40;78.20
22966;DHT22;11649;48.090;9.754;2023-07-13T12:15:07;22.60;63.50
22966;DHT22;11649;48.090;9.754;2023-07-13T12:17:35;22.50;71.80
22966;DHT22;11649;48.090;9.754;2023-07-13T12:20:44;22.40;74.10
22966;DHT22;11649;48.090;9.754;2023-07-13T12:23:34;22.10;77.50
22966;DHT22;11649;48.090;9.754;2023-07-13T12:26:03;21.80;73.50
22966;DHT22;11649;48.090;9.754;2023-07-13T12:28:31;21.80;76.60
22966;DHT22;11649;48.090;9.754;2023-07-13T12:31:01;22.00;77.30
22966;DHT22;11649;48.090;9.754;2023-07-13T12:33:30;22.10;74.80
22966;DHT22;11649;48.090;9.754;2023-07-13T12:36:03;22.30;73.30
22966;DHT22;11649;48.090;9.754;2023-07-13T12:38:32;22.50;69.50
22966;DHT22;11649;48.090;9.754;2023-07-13T12:41:01;23.10;68.70
22966;DHT22;11649;48.090;9.754;2023-07-13T12:43:34;23.60;63.50
22966;DHT22;11649;48.090;9.754;2023-07-13T12:46:20;24.00;67.60
22966;DHT22;11649;48.090;9.754;2023-07-13T12:48:54;24.70;59.10
22966;DHT22;11649;48.090;9.754;2023-07-13T12:51:41;24.90;62.50
22966;DHT22;11649;48.090;9.754;2023-07-13T12:54:17;24.90;59.70
22966;DHT22;11649;48.090;9.754;2023-07-13T12:56:45;25.40;60.90
22966;DHT22;11649;48.090;9.754;2023-07-13T12:59:22;26.30;56.50
22966;DHT22;11649;48.090;9.754;2023-07-13T13:01:50;26.80;54.60
22966;DHT22;11649;48.090;9.754;2023-07-13T13:04:17;26.80;55.90
22966;DHT22;11649;48.090;9.754;2023-07-13T13:06:49;27.20;52.00
22966;DHT22;11649;48.090;9.754;2023-07-13T13:09:27;27.90;47.80
22966;DHT22;11649;48.090;9.754;2023-07-13T13:11:53;28.20;49.60
22966;DHT22;11649;48.090;9.754;2023-07-13T13:14:20;28.30;48.40
22966;DHT22;11649;48.090;9.754;2023-07-13T13:16:49;28.40;48.80
22966;DHT22;11649;48.090;9.754;2023-07-13T13:19:20;29.10;45.20
22966;DHT22;11649;48.090;9.754;2023-07-13T13:21:48;29.00;47.60
22966;DHT22;11649;48.090;9.754;2023-07-13T13:24:21;29.20;46.70
22966;DHT22;11649;48.090;9.754;2023-07-13T13:26:50;28.10;48.80
22966;DHT22;11649;48.090;9.754;2023-07-13T13:29:23;28.00;49.50
22966;DHT22;11649;48.090;9.754;2023-07-13T13:31:54;28.20;50.20
22966;DHT22;11649;48.090;9.754;2023-07-13T13:34:22;28.40;49.60
22966;DHT22;11649;48.090;9.754;2023-07-13T13:36:54;29.00;48.80
22966;DHT22;11649;48.090;9.754;2023-07-13T13:39:44;29.30;49.90
22966;DHT22;11649;48.090;9.754;2023-07-13T13:42:28;29.60;48.80
22966;DHT22;11649;48.090;9.754;2023-07-13T13:44:55;29.40;48.80
22966;DHT22;11649;48.090;9.754;2023-07-13T13:47:30;30.10;45.70
22966;DHT22;11649;48.090;9.754;2023-07-13T13:49:57;31.30;45.30
22966;DHT22;11649;48.090;9.754;2023-07-13T13:52:25;32.60;37.20
22966;DHT22;11649;48.090;9.754;2023-07-13T13:54:52;31.60;43.30
22966;DHT22;11649;48.090;9.754;2023-07-13T13:57:23;31.60;39.70
22966;DHT22;11649;48.090;9.754;2023-07-13T13:59:51;31.80;41.90
22966;DHT22;11649;48.090;9.754;2023-07-13T14:02:27;32.40;40.20
22966;DHT22;11649;48.090;9.754;2023-07-13T14:04:58;32.30;40.60
22966;DHT22;11649;48.090;9.754;2023-07-13T14:07:26;32.30;42.70
22966;DHT22;11649;48.090;9.754;2023-07-13T14:09:57;31.90;40.20
22966;DHT22;11649;48.090;9.754;2023-07-13T14:12:24;32.30;39.90
22966;DHT22;11649;48.090;9.754;2023-07-13T14:14:55;31.70;42.90
22966;DHT22;11649;48.090;9.754;2023-07-13T14:17:27;32.90;40.40
22966;DHT22;11649;48.090;9.754;2023-07-13T14:19:54;32.70;37.90
22966;DHT22;11649;48.090;9.754;2023-07-13T14:22:25;31.20;37.80
22966;DHT22;11649;48.090;9.754;2023-07-13T14:24:55;29.50;39.70
22966;DHT22;11649;48.090;9.754;2023-07-13T14:27:24;27.90;44.10
22966;DHT22;11649;48.090;9.754;2023-07-13T14:29:51;26.50;47.60
22966;DHT22;11649;48.090;9.754;2023-07-13T14:32:18;25.10;50.50
22966;DHT22;11649;48.090;9.754;2023-07-13T14:34:45;24.40;55.70
22966;DHT22;11649;48.090;9.754;2023-07-13T14:37:13;24.40;52.10
22966;DHT22;11649;48.090;9.754;2023-07-13T14:39:43;24.60;54.30
22966;DHT22;11649;48.090;9.754;2023-07-13T14:42:10;24.80;55.00
22966;DHT22;11649;48.090;9.754;2023-07-13T14:44:38;24.90;51.50
22966;DHT22;11649;48.090;9.754;2023-07-13T14:47:06;24.90;53.40
22966;DHT22;11649;48.090;9.754;2023-07-13T14:49:42;24.80;53.50
22966;DHT22;11649;48.090;9.754;2023-07-13T14:52:19;24.80;56.00
22966;DHT22;11649;48.090;9.754;2023-07-13T14:54:47;26.70;52.00
22966;DHT22;11649;48.090;9.754;2023-07-13T14:57:16;28.50;47.10
22966;DHT22;11649;48.090;9.754;2023-07-13T14:59:43;28.70;46.30
22966;DHT22;11649;48.090;9.754;2023-07-13T15:02:23;28.00;47.80
22966;DHT22;11649;48.090;9.754;2023-07-13T15:04:52;27.20;48.30
22966;DHT22;11649;48.090;9.754;2023-07-13T15:07:19;26.70;50.40
22966;DHT22;11649;48.090;9.754;2023-07-13T15:09:47;26.80;48.20
22966;DHT22;11649;48.090;9.754;2023-07-13T15:12:14;26.60;52.10
22966;DHT22;11649;48.090;9.754;2023-07-13T15:14:41;26.20;49.40
22966;DHT22;11649;48.090;9.754;2023-07-13T15:17:38;25.80;51.70
22966;DHT22;11649;48.090;9.754;2023-07-13T15:20:32;26.20;52.60
22966;DHT22;11649;48.090;9.754;2023-07-13T15:23:02;27.80;47.00
22966;DHT22;11649;48.090;9.754;2023-07-13T15:25:31;28.30;45.60
22966;DHT22;11649;48.090;9.754;2023-07-13T15:28:00;28.60;47.80
22966;DHT22;11649;48.090;9.754;2023-07-13T15:30:31;29.00;46.80
22966;DHT22;11649;48.090;9.754;2023-07-13T15:33:01;28.60;47.00
22966;DHT22;11649;48.090;9.754;2023-07-13T15:35:33;28.80;47.50
22966;DHT22;11649;48.090;9.754;2023-07-13T15:38:00;29.20;44.70
22966;DHT22;11649;48.090;9.754;2023-07-13T15:40:27;29.20;45.10
22966;DHT22;11649;48.090;9.754;2023-07-13T15:42:53;28.70;47.50
22966;DHT22;11649;48.090;9.754;2023-07-13T15:45:22;28.90;47.90
22966;DHT22;11649;48.090;9.754;2023-07-13T15:47:50;29.20;45.60
22966;DHT22;11649;48.090;9.754;2023-07-13T15:50:20;28.30;44.10
22966;DHT22;11649;48.090;9.754;2023-07-13T15:52:53;27.30;48.50
22966;DHT22;11649;48.090;9.754;2023-07-13T15:55:21;26.80;48.70
22966;DHT22;11649;48.090;9.754;2023-07-13T15:57:50;26.60;50.60
22966;DHT22;11649;48.090;9.754;2023-07-13T16:02:48;25.90;51.70
22966;DHT22;11649;48.090;9.754;2023-07-13T16:05:16;25.50;52.00
22966;DHT22;11649;48.090;9.754;2023-07-13T16:07:47;24.80;55.10
22966;DHT22;11649;48.090;9.754;2023-07-13T16:10:32;24.30;56.40
22966;DHT22;11649;48.090;9.754;2023-07-13T16:13:01;24.20;60.20
22966;DHT22;11649;48.090;9.754;2023-07-13T16:15:28;24.30;57.20
22966;DHT22;11649;48.090;9.754;2023-07-13T16:17:55;24.20;58.40
22966;DHT22;11649;48.090;9.754;2023-07-13T16:20:22;24.10;58.60
22966;DHT22;11649;48.090;9.754;2023-07-13T16:22:54;24.00;59.40